createdAt,value
2023-02-14T00:02:00.009Z,3.39
2023-02-14T00:04:28.091Z,3.36
2023-02-14T00:06:56.089Z,3.38
2023-02-14T00:09:24.395Z,3.38
2023-02-14T00:11:52.971Z,3.36
2023-02-14T00:14:39.713Z,3.36
2023-02-14T00:17:07.574Z,3.34
2023-02-14T00:19:36.115Z,3.34
2023-02-14T00:22:05.368Z,3.34
2023-02-14T00:24:33.321Z,3.34
2023-02-14T00:27:01.314Z,3.33
2023-02-14T00:29:31.680Z,3.31
2023-02-14T00:32:00.572Z,3.31
2023-02-14T00:34:29.122Z,3.30
2023-02-14T00:36:57.096Z,3.31
2023-02-14T00:39:25.429Z,3.30
2023-02-14T00:41:53.655Z,3.30
2023-02-14T00:44:22.961Z,3.30
2023-02-14T00:46:51.042Z,3.31
2023-02-14T00:49:19.034Z,3.31
2023-02-14T00:51:47.607Z,3.29
2023-02-14T00:54:15.599Z,3.29
2023-02-14T00:56:43.508Z,3.29
2023-02-14T00:59:12.062Z,3.30
2023-02-14T01:01:40.309Z,3.30
2023-02-14T01:04:08.314Z,3.28
2023-02-14T01:06:36.388Z,3.28
2023-02-14T01:09:04.997Z,3.27
2023-02-14T01:11:34.489Z,3.28
2023-02-14T01:14:02.428Z,3.27
2023-02-14T01:16:30.453Z,3.25
2023-02-14T01:19:01.323Z,3.25
2023-02-14T01:21:32.994Z,3.25
2023-02-14T01:24:04.151Z,3.25
2023-02-14T01:26:32.540Z,3.22
2023-02-14T01:29:03.781Z,3.21
2023-02-14T01:31:33.919Z,3.19
2023-02-14T01:34:02.314Z,3.19
2023-02-14T01:36:39.521Z,3.19
2023-02-14T01:39:13.682Z,3.16
2023-02-14T01:41:43.798Z,3.18
2023-02-14T01:44:38.420Z,3.16
2023-02-14T01:47:10.428Z,3.12
2023-02-14T01:49:50.114Z,3.12
2023-02-14T01:52:23.938Z,3.11
2023-02-14T01:55:24.011Z,3.09
2023-02-14T01:57:58.920Z,3.09
2023-02-14T02:00:46.864Z,3.06
2023-02-14T02:03:17.766Z,3.05
2023-02-14T02:05:51.745Z,3.05
2023-02-14T02:08:20.293Z,3.05
2023-02-14T02:10:48.315Z,3.03
2023-02-14T02:13:21.584Z,3.01
2023-02-14T02:15:58.377Z,2.99
2023-02-14T02:19:02.299Z,2.96
2023-02-14T02:21:39.061Z,2.94
2023-02-14T02:24:40.801Z,2.93
2023-02-14T02:27:18.420Z,2.91
2023-02-14T02:30:24.315Z,2.91
2023-02-14T02:36:44.208Z,2.86
2023-02-14T02:39:36.924Z,2.83
2023-02-14T02:42:24.422Z,2.83
2023-02-14T02:45:04.702Z,2.80
2023-02-14T02:47:36.450Z,2.81
2023-02-14T02:50:45.364Z,2.81
2023-02-14T02:53:48.262Z,2.79
2023-02-14T02:56:44.456Z,2.78
2023-02-14T02:59:23.468Z,2.77
2023-02-14T03:02:20.838Z,2.75
2023-02-14T03:04:59.048Z,2.75
2023-02-14T03:07:39.205Z,2.75
2023-02-14T03:10:14.357Z,2.76
2023-02-14T03:12:55.647Z,2.73
2023-02-14T03:15:58.150Z,2.73
2023-02-14T03:18:44.827Z,2.71
2023-02-14T03:21:42.373Z,2.68
2023-02-14T03:24:47.415Z,2.68
2023-02-14T03:27:25.339Z,2.66
2023-02-14T03:30:13.217Z,2.68
2023-02-14T03:33:04.133Z,2.65
2023-02-14T03:35:38.000Z,2.60
2023-02-14T03:38:15.891Z,2.57
2023-02-14T03:40:54.781Z,2.56
2023-02-14T03:43:32.372Z,2.55
2023-02-14T03:46:44.787Z,2.56
2023-02-14T03:49:17.588Z,2.52
2023-02-14T03:51:49.946Z,2.50
2023-02-14T03:54:19.817Z,2.48
2023-02-14T03:57:01.418Z,2.46
2023-02-14T03:59:29.565Z,2.45
2023-02-14T04:02:47.404Z,2.45
2023-02-14T04:05:27.389Z,2.45
2023-02-14T04:07:58.756Z,2.42
2023-02-14T04:10:28.347Z,2.39
2023-02-14T04:12:56.482Z,2.38
2023-02-14T04:15:24.571Z,2.36
2023-02-14T04:18:11.110Z,2.37
2023-02-14T04:20:39.112Z,2.35
2023-02-14T04:23:07.130Z,2.35
2023-02-14T04:25:35.141Z,2.36
2023-02-14T04:28:03.069Z,2.35
2023-02-14T04:34:38.215Z,2.31
2023-02-14T04:37:07.261Z,2.29
2023-02-14T04:39:36.021Z,2.28
2023-02-14T04:42:05.261Z,2.25
2023-02-14T04:44:38.194Z,2.25
2023-02-14T04:47:06.866Z,2.24
2023-02-14T04:49:35.550Z,2.24
2023-02-14T04:52:04.428Z,2.23
2023-02-14T04:54:33.112Z,2.21
2023-02-14T04:57:01.531Z,2.20
2023-02-14T04:59:29.737Z,2.21
2023-02-14T05:01:58.340Z,2.18
2023-02-14T05:04:27.171Z,2.19
2023-02-14T05:06:55.148Z,2.18
2023-02-14T05:09:23.545Z,2.16
2023-02-14T05:11:51.808Z,2.15
2023-02-14T05:14:19.779Z,2.15
2023-02-14T05:16:47.861Z,2.14
2023-02-14T05:19:15.892Z,2.13
2023-02-14T05:21:43.908Z,2.11
2023-02-14T05:24:12.017Z,2.11
2023-02-14T05:26:41.045Z,2.09
2023-02-14T05:29:09.098Z,2.11
2023-02-14T05:31:37.255Z,2.10
2023-02-14T05:34:05.400Z,2.10
2023-02-14T05:36:33.603Z,2.10
2023-02-14T05:39:01.683Z,2.09
2023-02-14T05:41:29.683Z,2.06
2023-02-14T05:43:57.890Z,2.05
2023-02-14T05:46:25.932Z,2.04
2023-02-14T05:48:53.868Z,2.04
2023-02-14T05:51:21.884Z,2.03
2023-02-14T05:53:50.122Z,2.02
2023-02-14T05:56:18.293Z,2.04
2023-02-14T05:58:46.401Z,2.02
2023-02-14T06:01:14.452Z,2.04
2023-02-14T06:03:42.443Z,2.02
2023-02-14T06:06:11.138Z,2.02
2023-02-14T06:08:39.144Z,2.01
2023-02-14T06:11:07.042Z,2.00
2023-02-14T06:13:35.059Z,1.98
2023-02-14T06:16:04.431Z,1.97
2023-02-14T06:18:32.603Z,1.97
2023-02-14T06:21:01.130Z,2.00
2023-02-14T06:23:29.560Z,1.99
2023-02-14T06:25:58.351Z,1.98
2023-02-14T06:28:27.203Z,1.97
2023-02-14T06:30:55.312Z,1.96
2023-02-14T06:33:23.534Z,1.96
2023-02-14T06:35:54.294Z,1.97
2023-02-14T06:38:22.259Z,1.96
2023-02-14T06:40:50.340Z,1.96
2023-02-14T06:43:19.097Z,1.95
2023-02-14T06:45:47.779Z,1.96
2023-02-14T06:48:16.328Z,1.96
2023-02-14T06:50:44.428Z,1.97
2023-02-14T06:53:12.502Z,1.98
2023-02-14T06:55:42.417Z,1.98
2023-02-14T06:58:11.784Z,1.99
2023-02-14T07:00:39.842Z,2.01
2023-02-14T07:03:08.827Z,2.00
2023-02-14T07:05:37.052Z,2.01
2023-02-14T07:08:07.300Z,2.01
2023-02-14T07:10:35.689Z,2.00
2023-02-14T07:13:03.818Z,1.97
2023-02-14T07:15:32.338Z,1.97
2023-02-14T07:18:01.307Z,2.00
2023-02-14T07:20:29.837Z,1.98
2023-02-14T07:22:57.983Z,1.96
2023-02-14T07:25:28.296Z,1.99
2023-02-14T07:27:56.451Z,2.02
2023-02-14T07:30:25.191Z,2.02
2023-02-14T07:32:53.264Z,2.04
2023-02-14T07:35:21.291Z,2.07
2023-02-14T07:37:52.915Z,2.10
2023-02-14T07:40:21.154Z,2.12
2023-02-14T07:42:54.341Z,2.15
2023-02-14T07:45:23.278Z,2.18
2023-02-14T07:47:54.176Z,2.20
2023-02-14T07:50:23.241Z,2.26
2023-02-14T07:52:51.769Z,2.32
2023-02-14T07:55:20.402Z,2.36
2023-02-14T07:57:49.507Z,2.41
2023-02-14T08:00:18.782Z,2.45
2023-02-14T08:02:46.865Z,2.43
2023-02-14T08:05:15.592Z,2.43
2023-02-14T08:07:44.363Z,2.44
2023-02-14T08:10:13.255Z,2.44
2023-02-14T08:13:00.111Z,2.45
2023-02-14T08:15:53.426Z,2.47
2023-02-14T08:18:27.200Z,2.48
2023-02-14T08:20:55.329Z,2.49
2023-02-14T08:23:23.794Z,2.50
2023-02-14T08:25:52.710Z,2.50
2023-02-14T08:28:23.765Z,2.50
2023-02-14T08:30:52.417Z,2.53
2023-02-14T08:33:21.378Z,2.54
2023-02-14T08:35:51.921Z,2.59
2023-02-14T08:38:20.180Z,2.60
2023-02-14T08:40:48.476Z,2.64
2023-02-14T08:43:16.912Z,2.64
2023-02-14T08:45:44.924Z,2.69
2023-02-14T08:48:13.598Z,2.71
2023-02-14T08:50:41.844Z,2.72
2023-02-14T08:53:11.939Z,2.72
2023-02-14T08:55:40.468Z,2.72
2023-02-14T08:58:09.018Z,2.74
2023-02-14T09:00:37.106Z,2.75
2023-02-14T09:03:05.100Z,2.77
2023-02-14T09:05:34.522Z,2.77
2023-02-14T09:08:04.701Z,2.79
2023-02-14T09:10:32.755Z,2.78
2023-02-14T09:13:01.007Z,2.76
2023-02-14T09:15:29.003Z,2.74
2023-02-14T09:17:56.988Z,2.76
2023-02-14T09:20:25.388Z,2.75
2023-02-14T09:22:57.222Z,2.74
2023-02-14T09:25:25.119Z,2.71
2023-02-14T09:27:53.287Z,2.68
2023-02-14T09:30:21.383Z,2.67
2023-02-14T09:32:51.704Z,2.70
2023-02-14T09:35:38.204Z,2.71
2023-02-14T09:38:20.898Z,2.72
2023-02-14T09:40:50.589Z,2.72
2023-02-14T09:43:30.873Z,2.69
2023-02-14T09:46:02.423Z,2.73
2023-02-14T09:48:38.094Z,2.72
2023-02-14T09:51:13.029Z,2.70
2023-02-14T09:53:45.387Z,2.71
2023-02-14T09:56:23.364Z,2.74
2023-02-14T09:59:15.798Z,2.73
2023-02-14T10:01:48.848Z,2.71
2023-02-14T10:04:33.963Z,2.72
2023-02-14T10:07:18.385Z,2.73
2023-02-14T10:09:55.727Z,2.72
2023-02-14T10:12:33.745Z,2.73
2023-02-14T10:15:12.186Z,2.74
2023-02-14T10:18:25.610Z,2.75
2023-02-14T10:20:58.390Z,2.78
2023-02-14T10:23:35.702Z,2.78
2023-02-14T10:26:18.386Z,2.79
2023-02-14T10:28:54.351Z,2.78
2023-02-14T10:31:51.631Z,2.80
2023-02-14T10:34:25.184Z,2.80
2023-02-14T10:37:01.166Z,2.78
2023-02-14T10:39:47.747Z,2.79
2023-02-14T10:42:28.012Z,2.80
2023-02-14T10:45:39.145Z,2.78
2023-02-14T10:48:25.123Z,2.78
2023-02-14T10:51:04.502Z,2.76
2023-02-14T10:53:54.375Z,2.73
2023-02-14T10:56:39.054Z,2.77
2023-02-14T10:59:24.450Z,2.82
2023-02-14T11:04:37.752Z,2.81
2023-02-14T11:07:13.039Z,2.76
2023-02-14T11:09:40.985Z,2.79
2023-02-14T11:12:09.225Z,2.81
2023-02-14T11:14:40.834Z,2.82
2023-02-14T11:17:31.605Z,2.84
2023-02-14T11:20:20.609Z,2.88
2023-02-14T11:22:49.655Z,2.89
2023-02-14T11:25:31.836Z,2.89
2023-02-14T11:28:18.311Z,2.93
2023-02-14T11:30:48.469Z,2.92
2023-02-14T11:33:40.743Z,2.92
2023-02-14T11:36:16.751Z,2.92
2023-02-14T11:38:54.943Z,2.92
2023-02-14T11:41:24.456Z,2.93
2023-02-14T11:44:14.690Z,2.92
2023-02-14T11:46:52.722Z,2.97
2023-02-14T11:49:35.273Z,2.98
2023-02-14T11:52:11.827Z,3.03
2023-02-14T11:54:41.645Z,3.07
2023-02-14T11:57:14.883Z,3.09
2023-02-14T11:59:49.658Z,3.10
2023-02-14T12:02:43.602Z,3.08
2023-02-14T12:05:20.589Z,3.13
2023-02-14T12:07:54.594Z,3.16
2023-02-14T12:10:27.170Z,3.19
2023-02-14T12:13:10.203Z,3.19
2023-02-14T12:15:38.744Z,3.23
2023-02-14T12:18:09.397Z,3.27
2023-02-14T12:21:25.216Z,3.31
2023-02-14T12:24:16.695Z,3.36
2023-02-14T12:26:51.179Z,3.43
2023-02-14T12:29:41.438Z,3.49
2023-02-14T12:32:21.793Z,3.47
2023-02-14T12:34:50.595Z,3.45
2023-02-14T12:37:43.606Z,3.47
2023-02-14T12:40:40.702Z,3.49
2023-02-14T12:43:39.874Z,3.48
2023-02-14T12:46:16.873Z,3.57
2023-02-14T12:48:54.997Z,3.61
2023-02-14T12:51:48.485Z,3.64
2023-02-14T12:54:32.234Z,3.67
2023-02-14T12:57:13.010Z,3.65
2023-02-14T13:00:04.304Z,3.62
2023-02-14T13:02:41.198Z,3.60
2023-02-14T13:05:14.868Z,3.65
2023-02-14T13:08:01.046Z,3.71
2023-02-14T13:10:45.278Z,3.75
2023-02-14T13:13:33.689Z,3.79
2023-02-14T13:16:15.044Z,3.83
2023-02-14T13:18:46.068Z,3.82
2023-02-14T13:21:17.774Z,3.83
2023-02-14T13:23:50.590Z,3.80
2023-02-14T13:26:32.524Z,3.73
2023-02-14T13:29:13.432Z,3.69
2023-02-14T13:31:43.337Z,3.71
2023-02-14T13:34:23.596Z,3.78
2023-02-14T13:36:52.856Z,3.79
2023-02-14T13:39:38.062Z,3.77
2023-02-14T13:42:07.646Z,3.76
2023-02-14T13:44:50.304Z,3.76
2023-02-14T13:47:27.138Z,3.75
2023-02-14T13:50:01.195Z,3.74
2023-02-14T13:52:47.190Z,3.73
2023-02-14T13:55:43.706Z,3.74
2023-02-14T13:58:18.490Z,3.74
2023-02-14T14:00:48.584Z,3.77
2023-02-14T14:03:29.002Z,3.78
2023-02-14T14:06:02.313Z,3.77
2023-02-14T14:08:31.449Z,3.77
2023-02-14T14:11:19.600Z,3.75
2023-02-14T14:13:51.090Z,3.70
2023-02-14T14:16:28.457Z,3.68
2023-02-14T14:18:56.628Z,3.69
2023-02-14T14:21:26.070Z,3.70
2023-02-14T14:24:12.446Z,3.70
2023-02-14T14:26:47.900Z,3.72
2023-02-14T14:29:34.724Z,3.70
2023-02-14T14:32:09.994Z,3.70
2023-02-14T14:34:38.273Z,3.71
2023-02-14T14:37:16.646Z,3.69
2023-02-14T14:39:54.120Z,3.66
2023-02-14T14:42:25.571Z,3.65
2023-02-14T14:45:02.726Z,3.66
2023-02-14T14:47:45.283Z,3.64
2023-02-14T14:50:25.828Z,3.60
2023-02-14T14:53:04.201Z,3.58
2023-02-14T14:55:38.235Z,3.57
2023-02-14T14:58:26.643Z,3.53
2023-02-14T15:00:54.788Z,3.51
2023-02-14T15:03:26.892Z,3.49
2023-02-14T15:06:22.186Z,3.47
2023-02-14T15:08:51.578Z,3.46
2023-02-14T15:11:47.949Z,3.43
2023-02-14T15:14:24.054Z,3.42
2023-02-14T15:16:57.565Z,3.37
2023-02-14T15:19:34.688Z,3.34
2023-02-14T15:22:17.588Z,3.31
2023-02-14T15:24:46.026Z,3.31
2023-02-14T15:27:20.290Z,3.27
2023-02-14T15:30:04.997Z,3.24
2023-02-14T15:32:35.954Z,3.24
2023-02-14T15:35:06.901Z,3.22
2023-02-14T15:37:35.511Z,3.22
2023-02-14T15:40:08.834Z,3.21
2023-02-14T15:42:41.125Z,3.22
2023-02-14T15:45:23.027Z,3.19
2023-02-14T15:47:53.763Z,3.17
2023-02-14T15:50:31.400Z,3.15
2023-02-14T15:53:09.469Z,3.15
2023-02-14T15:55:37.893Z,3.14
2023-02-14T15:58:14.072Z,3.13
2023-02-14T16:00:44.501Z,3.11
2023-02-14T16:03:20.629Z,3.10
2023-02-14T16:05:50.669Z,3.10
2023-02-14T16:08:36.618Z,3.08
2023-02-14T16:11:08.824Z,3.08
2023-02-14T16:13:38.160Z,3.07
2023-02-14T16:16:09.508Z,3.05
2023-02-14T16:18:40.676Z,3.04
2023-02-14T16:21:21.141Z,3.04
2023-02-14T16:24:11.219Z,3.06
2023-02-14T16:26:41.979Z,3.05
2023-02-14T16:29:15.957Z,3.05
2023-02-14T16:32:14.215Z,3.05
2023-02-14T16:34:36.455Z,3.04
2023-02-14T16:37:31.797Z,3.04
2023-02-14T16:40:01.710Z,3.03
2023-02-14T16:42:30.049Z,3.03
2023-02-14T16:44:59.643Z,3.03
2023-02-14T16:47:27.942Z,3.04
2023-02-14T16:49:56.138Z,3.03
2023-02-14T16:52:28.655Z,3.02
2023-02-14T16:54:57.280Z,3.02
2023-02-14T16:57:29.307Z,3.01
2023-02-14T16:59:57.523Z,2.99
2023-02-14T17:02:30.669Z,3.00
2023-02-14T17:04:58.942Z,2.98
2023-02-14T17:07:29.610Z,2.98
2023-02-14T17:10:06.346Z,2.98
2023-02-14T17:12:37.897Z,2.97
2023-02-14T17:15:12.933Z,2.98
2023-02-14T17:17:41.352Z,2.96
2023-02-14T17:20:09.912Z,2.95
2023-02-14T17:22:38.239Z,2.94
2023-02-14T17:25:06.602Z,2.96
2023-02-14T17:27:35.419Z,2.97
2023-02-14T17:30:05.352Z,2.96
2023-02-14T17:32:35.230Z,2.96
2023-02-14T17:35:05.221Z,2.97
2023-02-14T17:37:33.747Z,2.99
2023-02-14T17:40:02.916Z,2.99
2023-02-14T17:42:32.802Z,2.99
2023-02-14T17:45:01.877Z,2.98
2023-02-14T17:47:30.269Z,2.97
2023-02-14T17:49:58.655Z,2.97
2023-02-14T17:52:28.530Z,2.98
2023-02-14T17:54:56.878Z,2.98
2023-02-14T17:57:25.512Z,2.98
2023-02-14T17:59:53.770Z,2.98
2023-02-14T18:02:22.044Z,2.98
2023-02-14T18:04:50.559Z,2.97
2023-02-14T18:07:18.752Z,2.97
2023-02-14T18:09:47.113Z,2.98
2023-02-14T18:12:15.934Z,2.98
2023-02-14T18:14:44.983Z,2.99
2023-02-14T18:17:13.704Z,2.98
2023-02-14T18:19:42.416Z,2.96
2023-02-14T18:22:10.958Z,2.96
2023-02-14T18:24:39.688Z,2.95
2023-02-14T18:27:08.299Z,2.94
2023-02-14T18:29:36.810Z,2.93
2023-02-14T18:32:05.796Z,2.94
2023-02-14T18:34:37.222Z,2.92
2023-02-14T18:37:06.761Z,2.91
2023-02-14T18:39:35.076Z,2.90
2023-02-14T18:42:04.683Z,2.91
2023-02-14T18:44:33.522Z,2.91
2023-02-14T18:47:02.833Z,2.90
2023-02-14T18:49:31.255Z,2.89
2023-02-14T18:52:01.842Z,2.91
2023-02-14T18:54:30.304Z,2.92
2023-02-14T18:56:58.772Z,2.92
2023-02-14T18:59:27.160Z,2.92
2023-02-14T19:04:37.040Z,2.93
2023-02-14T19:07:05.310Z,2.91
2023-02-14T19:09:38.993Z,2.91
2023-02-14T19:12:07.691Z,2.91
2023-02-14T19:14:36.742Z,2.91
2023-02-14T19:17:05.588Z,2.92
2023-02-14T19:19:34.700Z,2.92
2023-02-14T19:22:02.932Z,2.92
2023-02-14T19:24:31.189Z,2.91
2023-02-14T19:26:59.314Z,2.92
2023-02-14T19:29:27.773Z,2.92
2023-02-14T19:31:56.292Z,2.91
2023-02-14T19:34:29.219Z,2.92
2023-02-14T19:37:00.532Z,2.91
2023-02-14T19:39:30.651Z,2.90
2023-02-14T19:42:00.405Z,2.90
2023-02-14T19:44:31.204Z,2.90
2023-02-14T19:47:09.807Z,2.90
2023-02-14T19:49:44.034Z,2.89
2023-02-14T19:52:26.404Z,2.90
2023-02-14T19:54:57.796Z,2.89
2023-02-14T19:57:26.277Z,2.89
2023-02-14T19:59:54.649Z,2.87
2023-02-14T20:02:23.484Z,2.87
2023-02-14T20:05:05.945Z,2.87
2023-02-14T20:07:34.065Z,2.86
2023-02-14T20:10:02.333Z,2.87
2023-02-14T20:12:30.749Z,2.86
2023-02-14T20:14:59.025Z,2.85
2023-02-14T20:17:27.369Z,2.83
2023-02-14T20:19:56.142Z,2.81
2023-02-14T20:22:24.697Z,2.79
2023-02-14T20:24:53.148Z,2.78
2023-02-14T20:27:21.549Z,2.76
2023-02-14T20:29:52.106Z,2.76
2023-02-14T20:32:20.674Z,2.76
2023-02-14T20:34:50.582Z,2.75
2023-02-14T20:37:19.031Z,2.74
2023-02-14T20:39:47.295Z,2.72
2023-02-14T20:42:16.415Z,2.71
2023-02-14T20:44:45.405Z,2.69
2023-02-14T20:47:14.168Z,2.69
2023-02-14T20:49:44.794Z,2.67
2023-02-14T20:52:13.082Z,2.65
2023-02-14T20:54:41.218Z,2.64
2023-02-14T20:57:09.562Z,2.65
2023-02-14T20:59:39.183Z,2.67
2023-02-14T21:02:10.272Z,2.67
2023-02-14T21:04:38.635Z,2.67
2023-02-14T21:07:10.871Z,2.67
2023-02-14T21:09:39.307Z,2.66
2023-02-14T21:12:08.586Z,2.66
2023-02-14T21:14:36.823Z,2.65
2023-02-14T21:17:05.012Z,2.66
2023-02-14T21:19:33.269Z,2.66
2023-02-14T21:22:01.589Z,2.66
2023-02-14T21:24:30.463Z,2.64
2023-02-14T21:26:58.612Z,2.63
2023-02-14T21:29:26.855Z,2.63
2023-02-14T21:31:55.134Z,2.63
2023-02-14T21:34:23.779Z,2.63
2023-02-14T21:36:56.237Z,2.63
2023-02-14T21:39:28.170Z,2.62
2023-02-14T21:41:57.394Z,2.62
2023-02-14T21:44:44.183Z,2.61
2023-02-14T21:47:12.748Z,2.62
2023-02-14T21:50:00.015Z,2.61
2023-02-14T21:52:30.366Z,2.61
2023-02-14T21:54:58.568Z,2.61
2023-02-14T21:57:26.654Z,2.59
2023-02-14T21:59:55.072Z,2.58
2023-02-14T22:02:26.012Z,2.58
2023-02-14T22:04:54.515Z,2.58
2023-02-14T22:07:22.905Z,2.58
2023-02-14T22:09:51.752Z,2.56
2023-02-14T22:12:20.091Z,2.55
2023-02-14T22:14:48.206Z,2.56
2023-02-14T22:17:16.401Z,2.54
2023-02-14T22:19:44.561Z,2.55
2023-02-14T22:22:12.859Z,2.55
2023-02-14T22:24:41.089Z,2.55
2023-02-14T22:27:09.340Z,2.54
2023-02-14T22:29:37.683Z,2.54
2023-02-14T22:32:06.000Z,2.54
2023-02-14T22:34:34.885Z,2.55
2023-02-14T22:37:03.206Z,2.54
2023-02-14T22:39:31.463Z,2.53
2023-02-14T22:41:59.852Z,2.52
2023-02-14T22:44:28.807Z,2.52
2023-02-14T22:46:57.146Z,2.53
2023-02-14T22:49:25.418Z,2.51
2023-02-14T22:51:53.674Z,2.49
2023-02-14T22:54:22.275Z,2.50
2023-02-14T22:56:53.621Z,2.50
2023-02-14T22:59:24.487Z,2.52
2023-02-14T23:01:54.196Z,2.50
2023-02-14T23:04:24.838Z,2.52
2023-02-14T23:06:53.743Z,2.50
2023-02-14T23:09:23.537Z,2.47
2023-02-14T23:11:52.838Z,2.47
2023-02-14T23:14:39.730Z,2.47
2023-02-14T23:17:32.187Z,2.47
2023-02-14T23:20:18.878Z,2.47
2023-02-14T23:22:47.019Z,2.44
2023-02-14T23:25:15.325Z,2.45
2023-02-14T23:27:47.465Z,2.44
2023-02-14T23:30:18.870Z,2.44
2023-02-14T23:32:48.274Z,2.45
2023-02-14T23:35:16.474Z,2.45
2023-02-14T23:37:44.751Z,2.46
2023-02-14T23:40:12.989Z,2.46
2023-02-14T23:42:41.300Z,2.46
2023-02-14T23:45:28.226Z,2.45
2023-02-14T23:47:56.588Z,2.45
2023-02-14T23:50:25.097Z,2.46
2023-02-14T23:52:53.280Z,2.46
2023-02-14T23:55:21.574Z,2.47
2023-02-14T23:57:50.718Z,2.49
